createdAt,value
2019-02-17T00:01:00.453Z,100.00
2019-02-17T00:03:29.095Z,100.00
2019-02-17T00:05:57.745Z,100.00
2019-02-17T00:08:26.362Z,100.00
2019-02-17T00:10:54.966Z,100.00
2019-02-17T00:13:23.822Z,100.00
2019-02-17T00:15:52.430Z,100.00
2019-02-17T00:18:21.096Z,100.00
2019-02-17T00:20:49.700Z,100.00
2019-02-17T00:23:18.373Z,100.00
2019-02-17T00:25:46.920Z,100.00
2019-02-17T00:28:15.607Z,100.00
2019-02-17T00:30:44.233Z,100.00
2019-02-17T00:33:12.920Z,100.00
2019-02-17T00:35:41.497Z,100.00
2019-02-17T00:38:10.379Z,100.00
2019-02-17T00:40:38.970Z,100.00
2019-02-17T00:43:07.569Z,100.00
2019-02-17T00:45:36.132Z,100.00
2019-02-17T00:48:04.830Z,100.00
2019-02-17T00:50:33.776Z,100.00
2019-02-17T00:53:02.449Z,100.00
2019-02-17T00:55:30.982Z,100.00
2019-02-17T00:57:59.667Z,100.00
2019-02-17T01:00:28.177Z,100.00
2019-02-17T01:02:57.034Z,100.00
2019-02-17T01:05:25.625Z,100.00
2019-02-17T01:07:54.235Z,100.00
2019-02-17T01:10:22.787Z,100.00
2019-02-17T01:12:51.601Z,100.00
2019-02-17T01:15:20.158Z,100.00
2019-02-17T01:17:48.883Z,100.00
2019-02-17T01:20:18.023Z,100.00
2019-02-17T01:22:46.748Z,100.00
2019-02-17T01:25:15.401Z,100.00
2019-02-17T01:27:44.038Z,100.00
2019-02-17T01:30:14.637Z,100.00
2019-02-17T01:32:43.622Z,100.00
2019-02-17T01:35:12.240Z,100.00
2019-02-17T01:37:40.921Z,100.00
2019-02-17T01:40:10.356Z,100.00
2019-02-17T01:42:39.079Z,100.00
2019-02-17T01:45:09.376Z,100.00
2019-02-17T01:47:38.217Z,100.00
2019-02-17T01:50:10.216Z,100.00
2019-02-17T01:52:38.865Z,100.00
2019-02-17T01:55:08.592Z,100.00
2019-02-17T01:57:37.288Z,100.00
2019-02-17T02:00:12.001Z,100.00
2019-02-17T02:02:40.601Z,100.00
2019-02-17T02:05:09.506Z,100.00
2019-02-17T02:07:38.143Z,100.00
2019-02-17T02:10:09.165Z,100.00
2019-02-17T02:12:37.756Z,100.00
2019-02-17T02:15:09.461Z,100.00
2019-02-17T02:17:38.114Z,100.00
2019-02-17T02:20:09.877Z,100.00
2019-02-17T02:22:38.554Z,100.00
2019-02-17T02:25:07.854Z,100.00
2019-02-17T02:27:36.490Z,100.00
2019-02-17T02:30:08.315Z,100.00
2019-02-17T02:32:37.078Z,100.00
2019-02-17T02:35:06.318Z,100.00
2019-02-17T02:37:35.177Z,100.00
2019-02-17T02:40:04.376Z,100.00
2019-02-17T02:42:33.032Z,100.00
2019-02-17T02:45:01.642Z,100.00
2019-02-17T02:47:30.354Z,100.00
2019-02-17T02:49:59.086Z,100.00
2019-02-17T02:52:27.799Z,100.00
2019-02-17T02:54:56.382Z,100.00
2019-02-17T02:57:25.149Z,100.00
2019-02-17T02:59:53.779Z,100.00
2019-02-17T03:02:22.535Z,100.00
2019-02-17T03:04:51.110Z,100.00
2019-02-17T03:07:19.812Z,100.00
2019-02-17T03:09:48.396Z,100.00
2019-02-17T03:12:17.167Z,100.00
2019-02-17T03:14:45.782Z,100.00
2019-02-17T03:17:14.436Z,100.00
2019-02-17T03:19:43.057Z,100.00
2019-02-17T03:22:11.704Z,100.00
2019-02-17T03:24:40.343Z,100.00
2019-02-17T03:27:08.966Z,100.00
2019-02-17T03:29:37.615Z,100.00
2019-02-17T03:32:07.304Z,100.00
2019-02-17T03:34:38.418Z,100.00
2019-02-17T03:37:07.117Z,100.00
2019-02-17T03:39:35.882Z,100.00
2019-02-17T03:42:04.486Z,100.00
2019-02-17T03:44:33.070Z,100.00
2019-02-17T03:47:01.654Z,100.00
2019-02-17T03:49:30.241Z,100.00
2019-02-17T03:51:58.820Z,100.00
2019-02-17T03:54:27.379Z,100.00
2019-02-17T03:56:56.086Z,100.00
2019-02-17T03:59:24.654Z,100.00
2019-02-17T04:01:53.357Z,100.00
2019-02-17T04:04:21.919Z,100.00
2019-02-17T04:06:50.598Z,100.00
2019-02-17T04:09:19.208Z,100.00
2019-02-17T04:11:47.897Z,100.00
2019-02-17T04:14:16.457Z,100.00
2019-02-17T04:16:45.062Z,100.00
2019-02-17T04:19:14.116Z,100.00
2019-02-17T04:21:42.739Z,100.00
2019-02-17T04:24:11.310Z,100.00
2019-02-17T04:26:39.915Z,100.00
2019-02-17T04:29:10.291Z,100.00
2019-02-17T04:31:38.852Z,100.00
2019-02-17T04:34:07.500Z,100.00
2019-02-17T04:36:36.062Z,100.00
2019-02-17T04:39:06.241Z,100.00
2019-02-17T04:41:34.878Z,100.00
2019-02-17T04:44:03.471Z,100.00
2019-02-17T04:46:32.189Z,100.00
2019-02-17T04:49:00.839Z,100.00
2019-02-17T04:51:29.716Z,100.00
2019-02-17T04:53:58.354Z,100.00
2019-02-17T04:56:27.009Z,100.00
2019-02-17T04:58:55.591Z,100.00
2019-02-17T05:01:24.259Z,100.00
2019-02-17T05:03:52.878Z,100.00
2019-02-17T05:06:21.418Z,100.00
2019-02-17T05:08:51.210Z,100.00
2019-02-17T05:11:19.825Z,100.00
2019-02-17T05:13:48.440Z,100.00
2019-02-17T05:16:17.113Z,100.00
2019-02-17T05:18:45.686Z,100.00
2019-02-17T05:21:14.400Z,100.00
2019-02-17T05:23:43.066Z,100.00
2019-02-17T05:26:11.726Z,100.00
2019-02-17T05:28:40.510Z,100.00
2019-02-17T05:31:09.254Z,100.00
2019-02-17T05:33:37.807Z,100.00
2019-02-17T05:36:06.542Z,100.00
2019-02-17T05:38:35.178Z,100.00
2019-02-17T05:41:03.742Z,100.00
2019-02-17T05:43:32.339Z,100.00
2019-02-17T05:46:01.023Z,100.00
2019-02-17T05:48:29.756Z,100.00
2019-02-17T05:50:59.124Z,100.00
2019-02-17T05:53:27.696Z,100.00
2019-02-17T05:55:56.568Z,100.00
2019-02-17T05:58:25.176Z,100.00
2019-02-17T06:01:03.226Z,100.00
2019-02-17T06:03:24.087Z,100.00
2019-02-17T06:05:52.766Z,100.00
2019-02-17T06:08:21.526Z,100.00
2019-02-17T06:10:50.114Z,100.00
2019-02-17T06:13:18.758Z,100.00
2019-02-17T06:15:47.387Z,100.00
2019-02-17T06:18:16.063Z,100.00
2019-02-17T06:20:44.655Z,100.00
2019-02-17T06:23:13.258Z,100.00
2019-02-17T06:25:41.842Z,100.00
2019-02-17T06:28:10.586Z,100.00
2019-02-17T06:30:39.285Z,100.00
2019-02-17T06:33:07.907Z,100.00
2019-02-17T06:35:36.482Z,100.00
2019-02-17T06:38:05.173Z,100.00
2019-02-17T06:40:33.731Z,100.00
2019-02-17T06:43:02.336Z,100.00
2019-02-17T06:45:30.930Z,100.00
2019-02-17T06:47:59.582Z,100.00
2019-02-17T06:50:28.136Z,100.00
2019-02-17T06:52:56.713Z,100.00
2019-02-17T06:55:29.821Z,100.00
2019-02-17T06:57:58.378Z,100.00
2019-02-17T07:00:28.577Z,100.00
2019-02-17T07:02:57.814Z,100.00
2019-02-17T07:05:42.709Z,100.00
2019-02-17T07:08:11.638Z,100.00
2019-02-17T07:10:40.157Z,100.00
2019-02-17T07:13:08.977Z,100.00
2019-02-17T07:15:37.519Z,100.00
2019-02-17T07:18:06.093Z,100.00
2019-02-17T07:20:34.658Z,100.00
2019-02-17T07:23:03.793Z,100.00
2019-02-17T07:25:32.517Z,100.00
2019-02-17T07:28:01.233Z,100.00
2019-02-17T07:30:30.097Z,100.00
2019-02-17T07:32:58.680Z,100.00
2019-02-17T07:35:27.262Z,100.00
2019-02-17T07:37:55.930Z,100.00
2019-02-17T07:40:24.511Z,100.00
2019-02-17T07:42:53.115Z,100.00
2019-02-17T07:45:21.696Z,100.00
2019-02-17T07:47:50.352Z,100.00
2019-02-17T07:50:19.068Z,100.00
2019-02-17T07:52:47.664Z,100.00
2019-02-17T07:55:16.241Z,100.00
2019-02-17T07:57:44.813Z,100.00
2019-02-17T08:00:13.648Z,100.00
2019-02-17T08:02:42.308Z,100.00
2019-02-17T08:05:10.950Z,100.00
2019-02-17T08:07:39.593Z,100.00
2019-02-17T08:10:09.898Z,100.00
2019-02-17T08:12:38.679Z,100.00
2019-02-17T08:15:09.712Z,100.00
2019-02-17T08:17:38.306Z,100.00
2019-02-17T08:20:09.496Z,100.00
2019-02-17T08:22:38.724Z,100.00
2019-02-17T08:25:08.562Z,100.00
2019-02-17T08:27:37.306Z,100.00
2019-02-17T08:30:11.477Z,100.00
2019-02-17T08:32:40.160Z,100.00
2019-02-17T08:35:09.561Z,100.00
2019-02-17T08:37:38.208Z,100.00
2019-02-17T08:40:09.433Z,100.00
2019-02-17T08:42:38.057Z,100.00
2019-02-17T08:45:08.665Z,100.00
2019-02-17T08:47:37.629Z,100.00
2019-02-17T08:50:09.346Z,99.59
2019-02-17T08:52:38.102Z,99.66
2019-02-17T08:55:09.328Z,98.22
2019-02-17T08:57:38.166Z,97.46
2019-02-17T09:00:12.446Z,96.18
2019-02-17T09:02:41.062Z,95.03
2019-02-17T09:05:09.570Z,93.71
2019-02-17T09:07:38.421Z,93.04
2019-02-17T09:10:12.124Z,92.15
2019-02-17T09:12:40.753Z,92.03
2019-02-17T09:15:11.724Z,91.06
2019-02-17T09:17:40.350Z,90.74
2019-02-17T09:20:10.752Z,90.06
2019-02-17T09:22:39.488Z,89.79
2019-02-17T09:25:10.607Z,89.88
2019-02-17T09:27:39.438Z,89.34
2019-02-17T09:30:11.275Z,88.49
2019-02-17T09:32:40.238Z,89.44
2019-02-17T09:35:08.868Z,88.84
2019-02-17T09:37:37.504Z,88.59
2019-02-17T09:40:09.009Z,86.15
2019-02-17T09:42:37.559Z,85.70
2019-02-17T09:45:09.728Z,84.58
2019-02-17T09:47:38.377Z,83.42
2019-02-17T09:50:12.040Z,82.62
2019-02-17T09:52:40.648Z,82.12
2019-02-17T09:55:10.614Z,81.42
2019-02-17T09:57:39.672Z,79.95
2019-02-17T10:00:15.944Z,79.83
2019-02-17T10:02:44.627Z,78.01
2019-02-17T10:05:13.954Z,77.89
2019-02-17T10:07:42.631Z,76.61
2019-02-17T10:10:16.508Z,75.65
2019-02-17T10:12:45.122Z,72.92
2019-02-17T10:15:14.433Z,71.90
2019-02-17T10:17:42.970Z,71.16
2019-02-17T10:20:13.423Z,70.25
2019-02-17T10:22:42.149Z,68.49
2019-02-17T10:25:11.179Z,68.75
2019-02-17T10:27:39.802Z,70.01
2019-02-17T10:30:16.290Z,67.52
2019-02-17T10:32:44.956Z,67.95
2019-02-17T10:35:13.696Z,67.34
2019-02-17T10:37:42.321Z,65.68
2019-02-17T10:40:18.991Z,62.93
2019-02-17T10:42:47.554Z,62.01
2019-02-17T10:45:16.429Z,59.71
2019-02-17T10:47:45.050Z,55.81
2019-02-17T10:50:13.895Z,59.38
2019-02-17T10:52:42.527Z,60.52
2019-02-17T10:55:12.866Z,60.92
2019-02-17T10:57:41.541Z,61.41
2019-02-17T11:00:20.901Z,61.81
2019-02-17T11:02:49.730Z,61.43
2019-02-17T11:05:18.497Z,64.86
2019-02-17T11:07:47.110Z,60.56
2019-02-17T11:10:15.730Z,59.02
2019-02-17T11:12:44.438Z,58.38
2019-02-17T11:15:18.144Z,58.07
2019-02-17T11:17:47.108Z,57.20
2019-02-17T11:20:15.854Z,58.97
2019-02-17T11:22:44.572Z,56.87
2019-02-17T11:25:13.418Z,56.44
2019-02-17T11:27:42.185Z,59.38
2019-02-17T11:30:17.421Z,57.69
2019-02-17T11:32:46.106Z,56.81
2019-02-17T11:35:14.812Z,53.29
2019-02-17T11:37:45.186Z,52.84
2019-02-17T11:40:13.998Z,52.27
2019-02-17T11:42:42.911Z,50.27
2019-02-17T11:45:15.152Z,51.80
2019-02-17T11:47:44.016Z,53.31
2019-02-17T11:50:12.750Z,50.29
2019-02-17T11:52:41.413Z,44.89
2019-02-17T11:55:12.177Z,42.61
2019-02-17T11:57:41.971Z,43.16
2019-02-17T12:00:13.934Z,40.54
2019-02-17T12:02:43.196Z,37.42
2019-02-17T12:05:12.237Z,34.73
2019-02-17T12:07:40.878Z,38.27
2019-02-17T12:10:11.814Z,38.74
2019-02-17T12:12:42.187Z,44.24
2019-02-17T12:15:13.166Z,42.48
2019-02-17T12:17:42.042Z,40.65
2019-02-17T12:20:33.898Z,38.31
2019-02-17T12:23:04.298Z,38.73
2019-02-17T12:25:34.735Z,39.61
2019-02-17T12:28:07.884Z,40.59
2019-02-17T12:30:37.418Z,36.59
2019-02-17T12:33:06.181Z,32.63
2019-02-17T12:35:35.169Z,35.75
2019-02-17T12:38:04.042Z,36.57
2019-02-17T12:40:32.737Z,36.81
2019-02-17T12:43:01.813Z,36.25
2019-02-17T12:45:30.652Z,33.31
2019-02-17T12:47:59.373Z,37.34
2019-02-17T12:50:28.159Z,42.95
2019-02-17T12:52:56.777Z,44.55
2019-02-17T12:55:25.462Z,46.95
2019-02-17T12:57:54.048Z,46.86
2019-02-17T13:00:24.308Z,46.61
2019-02-17T13:02:53.053Z,48.67
2019-02-17T13:05:21.617Z,47.29
2019-02-17T13:07:50.406Z,46.57
2019-02-17T13:10:18.920Z,45.25
2019-02-17T13:12:47.655Z,45.26
2019-02-17T13:15:16.310Z,46.90
2019-02-17T13:17:44.918Z,49.79
2019-02-17T13:20:14.882Z,48.58
2019-02-17T13:22:43.584Z,46.17
2019-02-17T13:25:16.758Z,43.17
2019-02-17T13:27:45.691Z,45.56
2019-02-17T13:30:20.048Z,47.78
2019-02-17T13:32:48.872Z,46.18
2019-02-17T13:35:17.859Z,45.77
2019-02-17T13:37:47.175Z,45.74
2019-02-17T13:40:15.850Z,44.39
2019-02-17T13:42:44.622Z,41.04
2019-02-17T13:45:15.726Z,38.05
2019-02-17T13:47:44.582Z,36.98
2019-02-17T13:50:15.449Z,40.72
2019-02-17T13:52:44.075Z,42.91
2019-02-17T13:55:12.728Z,44.37
2019-02-17T13:57:41.752Z,45.58
2019-02-17T14:00:15.563Z,44.82
2019-02-17T14:02:44.189Z,43.73
2019-02-17T14:05:12.753Z,43.15
2019-02-17T14:07:41.678Z,46.35
2019-02-17T14:10:14.126Z,46.96
2019-02-17T14:12:42.996Z,52.01
2019-02-17T14:15:14.815Z,53.26
2019-02-17T14:17:43.453Z,54.71
2019-02-17T14:20:12.060Z,54.55
2019-02-17T14:22:40.725Z,55.22
2019-02-17T14:25:11.954Z,54.05
2019-02-17T14:27:40.625Z,55.85
2019-02-17T14:30:17.533Z,54.89
2019-02-17T14:32:46.300Z,54.05
2019-02-17T14:35:14.896Z,54.55
2019-02-17T14:37:43.569Z,55.24
2019-02-17T14:40:14.127Z,55.21
2019-02-17T14:42:44.013Z,56.40
2019-02-17T14:45:14.216Z,57.58
2019-02-17T14:47:43.518Z,57.60
2019-02-17T14:50:13.732Z,58.09
2019-02-17T14:52:42.390Z,56.37
2019-02-17T14:55:14.044Z,57.50
2019-02-17T14:57:42.782Z,57.67
2019-02-17T15:00:13.904Z,57.57
2019-02-17T15:02:42.692Z,57.95
2019-02-17T15:05:11.795Z,58.17
2019-02-17T15:07:40.598Z,59.49
2019-02-17T15:10:11.055Z,58.93
2019-02-17T15:12:40.151Z,58.04
2019-02-17T15:15:13.713Z,59.00
2019-02-17T15:17:42.828Z,60.62
2019-02-17T15:20:13.938Z,60.65
2019-02-17T15:22:42.978Z,60.68
2019-02-17T15:25:12.314Z,62.34
2019-02-17T15:27:41.087Z,62.34
2019-02-17T15:30:12.559Z,62.27
2019-02-17T15:32:41.160Z,61.64
2019-02-17T15:35:09.824Z,61.16
2019-02-17T15:37:38.550Z,61.83
2019-02-17T15:40:10.984Z,64.00
2019-02-17T15:42:39.589Z,63.83
2019-02-17T15:45:12.732Z,64.94
2019-02-17T15:47:41.538Z,65.21
2019-02-17T15:50:11.712Z,65.97
2019-02-17T15:52:40.290Z,67.25
2019-02-17T15:55:11.463Z,66.79
2019-02-17T15:57:40.165Z,67.33
2019-02-17T16:00:16.872Z,69.09
2019-02-17T16:02:45.648Z,68.96
2019-02-17T16:05:14.412Z,71.48
2019-02-17T16:07:43.240Z,72.36
2019-02-17T16:10:13.228Z,74.01
2019-02-17T16:12:41.975Z,74.77
2019-02-17T16:15:19.611Z,76.43
2019-02-17T16:17:48.177Z,78.63
2019-02-17T16:20:16.727Z,79.37
2019-02-17T16:22:45.328Z,79.66
2019-02-17T16:25:13.931Z,80.23
2019-02-17T16:27:42.502Z,80.04
2019-02-17T16:30:28.511Z,80.39
2019-02-17T16:32:57.407Z,82.36
2019-02-17T16:35:25.897Z,82.64
2019-02-17T16:37:54.405Z,85.85
2019-02-17T16:40:22.904Z,88.70
2019-02-17T16:42:51.460Z,92.38
2019-02-17T16:45:20.365Z,93.03
2019-02-17T16:47:48.917Z,92.23
2019-02-17T16:50:20.589Z,91.12
2019-02-17T16:52:49.144Z,89.65
2019-02-17T16:55:17.626Z,88.68
2019-02-17T16:57:46.267Z,90.38
2019-02-17T17:00:22.948Z,90.70
2019-02-17T17:02:52.913Z,91.90
2019-02-17T17:05:22.448Z,91.81
2019-02-17T17:07:51.150Z,91.00
2019-02-17T17:10:19.688Z,91.75
2019-02-17T17:12:48.217Z,93.92
2019-02-17T17:15:17.276Z,94.89
2019-02-17T17:17:45.811Z,94.63
2019-02-17T17:20:22.156Z,95.21
2019-02-17T17:22:50.952Z,96.76
2019-02-17T17:25:19.466Z,98.60
2019-02-17T17:27:48.115Z,99.33
2019-02-17T17:30:18.032Z,99.46
2019-02-17T17:32:46.578Z,100.00
2019-02-17T17:35:15.050Z,100.00
2019-02-17T17:37:45.360Z,100.00
2019-02-17T17:40:15.519Z,100.00
2019-02-17T17:42:44.127Z,100.00
2019-02-17T17:45:17.863Z,100.00
2019-02-17T17:47:46.496Z,100.00
2019-02-17T17:50:15.824Z,100.00
2019-02-17T17:52:44.412Z,100.00
2019-02-17T17:55:13.744Z,100.00
2019-02-17T17:57:42.363Z,100.00
2019-02-17T18:00:19.663Z,100.00
2019-02-17T18:02:48.199Z,100.00
2019-02-17T18:05:16.683Z,100.00
2019-02-17T18:07:45.293Z,100.00
2019-02-17T18:10:17.383Z,100.00
2019-02-17T18:12:45.947Z,100.00
2019-02-17T18:15:18.475Z,100.00
2019-02-17T18:17:54.600Z,100.00
2019-02-17T18:20:19.237Z,100.00
2019-02-17T18:22:47.966Z,100.00
2019-02-17T18:25:16.589Z,100.00
2019-02-17T18:27:45.157Z,100.00
2019-02-17T18:30:18.984Z,100.00
2019-02-17T18:32:47.592Z,100.00
2019-02-17T18:35:20.118Z,100.00
2019-02-17T18:37:46.462Z,100.00
2019-02-17T18:40:17.932Z,100.00
2019-02-17T18:42:46.498Z,100.00
2019-02-17T18:45:16.084Z,100.00
2019-02-17T18:47:44.645Z,100.00
2019-02-17T18:50:14.600Z,100.00
2019-02-17T18:52:43.127Z,100.00
2019-02-17T18:55:13.045Z,100.00
2019-02-17T18:57:49.507Z,100.00
2019-02-17T19:00:23.498Z,100.00
2019-02-17T19:02:52.134Z,100.00
2019-02-17T19:05:31.108Z,100.00
2019-02-17T19:07:51.332Z,100.00
2019-02-17T19:10:19.957Z,100.00
2019-02-17T19:12:48.613Z,100.00
2019-02-17T19:15:19.369Z,100.00
2019-02-17T19:17:48.262Z,100.00
2019-02-17T19:20:20.010Z,100.00
2019-02-17T19:22:48.550Z,100.00
2019-02-17T19:25:17.049Z,100.00
2019-02-17T19:27:45.618Z,100.00
2019-02-17T19:30:15.755Z,100.00
2019-02-17T19:32:44.656Z,100.00
2019-02-17T19:35:14.916Z,100.00
2019-02-17T19:37:43.503Z,100.00
2019-02-17T19:40:15.214Z,100.00
2019-02-17T19:42:44.129Z,100.00
2019-02-17T19:45:15.807Z,100.00
2019-02-17T19:47:44.405Z,100.00
2019-02-17T19:50:14.202Z,100.00
2019-02-17T19:52:42.811Z,100.00
2019-02-17T19:55:12.834Z,100.00
2019-02-17T19:57:41.805Z,100.00
2019-02-17T20:00:17.421Z,100.00
2019-02-17T20:03:03.821Z,100.00
2019-02-17T20:05:51.693Z,100.00
2019-02-17T20:08:13.819Z,100.00
2019-02-17T20:10:42.417Z,100.00
2019-02-17T20:13:10.977Z,100.00
2019-02-17T20:15:39.487Z,100.00
2019-02-17T20:18:08.041Z,100.00
2019-02-17T20:20:36.980Z,100.00
2019-02-17T20:23:05.611Z,100.00
2019-02-17T20:25:34.102Z,100.00
2019-02-17T20:28:02.601Z,100.00
2019-02-17T20:30:31.145Z,100.00
2019-02-17T20:32:59.820Z,100.00
2019-02-17T20:35:28.369Z,100.00
2019-02-17T20:37:56.967Z,100.00
2019-02-17T20:40:25.559Z,100.00
2019-02-17T20:42:54.208Z,100.00
2019-02-17T20:45:22.718Z,100.00
2019-02-17T20:47:51.310Z,100.00
2019-02-17T20:50:20.300Z,100.00
2019-02-17T20:52:48.845Z,100.00
2019-02-17T20:55:17.394Z,100.00
2019-02-17T20:57:45.974Z,100.00
2019-02-17T21:00:18.253Z,100.00
2019-02-17T21:02:46.846Z,100.00
2019-02-17T21:05:15.964Z,100.00
2019-02-17T21:07:44.578Z,100.00
2019-02-17T21:10:14.753Z,100.00
2019-02-17T21:12:43.411Z,100.00
2019-02-17T21:15:21.907Z,100.00
2019-02-17T21:17:51.054Z,100.00
2019-02-17T21:20:20.523Z,100.00
2019-02-17T21:22:49.181Z,100.00
2019-02-17T21:25:17.718Z,100.00
2019-02-17T21:27:46.405Z,100.00
2019-02-17T21:30:19.595Z,100.00
2019-02-17T21:32:48.777Z,100.00
2019-02-17T21:35:17.696Z,100.00
2019-02-17T21:37:46.390Z,100.00
2019-02-17T21:40:15.289Z,100.00
2019-02-17T21:42:43.980Z,100.00
2019-02-17T21:45:14.707Z,100.00
2019-02-17T21:47:43.285Z,100.00
2019-02-17T21:50:15.710Z,100.00
2019-02-17T21:52:44.345Z,100.00
2019-02-17T21:55:14.485Z,100.00
2019-02-17T21:57:43.086Z,100.00
2019-02-17T22:00:19.944Z,100.00
2019-02-17T22:02:49.443Z,100.00
2019-02-17T22:05:18.228Z,100.00
2019-02-17T22:07:46.917Z,100.00
2019-02-17T22:10:17.184Z,100.00
2019-02-17T22:12:45.823Z,100.00
2019-02-17T22:15:16.628Z,100.00
2019-02-17T22:17:46.288Z,100.00
2019-02-17T22:20:14.934Z,100.00
2019-02-17T22:22:43.515Z,100.00
2019-02-17T22:25:13.229Z,100.00
2019-02-17T22:27:41.865Z,100.00
2019-02-17T22:30:14.929Z,100.00
2019-02-17T22:32:43.687Z,100.00
2019-02-17T22:35:12.299Z,100.00
2019-02-17T22:37:40.950Z,100.00
2019-02-17T22:40:16.482Z,100.00
2019-02-17T22:42:45.034Z,100.00
2019-02-17T22:45:14.891Z,100.00
2019-02-17T22:47:43.533Z,100.00
2019-02-17T22:50:13.787Z,100.00
2019-02-17T22:52:42.300Z,100.00
2019-02-17T22:55:12.190Z,100.00
2019-02-17T22:57:40.764Z,100.00
2019-02-17T23:00:40.932Z,100.00
2019-02-17T23:03:09.938Z,100.00
2019-02-17T23:05:38.790Z,100.00
2019-02-17T23:08:07.750Z,100.00
2019-02-17T23:10:36.299Z,100.00
2019-02-17T23:13:04.882Z,100.00
2019-02-17T23:15:33.519Z,100.00
2019-02-17T23:18:02.111Z,100.00
2019-02-17T23:20:30.995Z,100.00
2019-02-17T23:22:59.527Z,100.00
2019-02-17T23:25:28.126Z,100.00
2019-02-17T23:27:56.753Z,100.00
2019-02-17T23:30:25.273Z,100.00
2019-02-17T23:32:53.929Z,100.00
2019-02-17T23:35:22.450Z,100.00
2019-02-17T23:37:51.042Z,100.00
2019-02-17T23:40:19.591Z,100.00
2019-02-17T23:42:48.149Z,100.00
2019-02-17T23:45:16.666Z,100.00
2019-02-17T23:47:45.272Z,100.00
2019-02-17T23:50:14.555Z,100.00
2019-02-17T23:52:43.744Z,100.00
2019-02-17T23:55:12.608Z,100.00
2019-02-17T23:57:41.240Z,100.00
